RAAF Base Curtin
YCIN : now visible

Airfield :











YOU CAN JOIN US ON...

 
LOGIN :

Register | Disclaimer

   EN    FR    IT 

 









Legend :    VFR   Marginal VFR   IFR   Intensive IFR   Very Intensive IFR
Visi :
Ceiling :
>= 8 km
>= 3000ft
5 to 8 km
1000 to 3000 ft
1500m to 5 km
500 to 1000 ft
800 to 1500m
200 to 500 ft
< 800m
< 200 ft
Symbols :   Thunderstorms  Fog  Heavy snow  Heavy precipitations  Wind > 20 kt






- Airport Elevation : 300 ft


YCIN - RAAF Base Curtin

CURRENT METAR :
  • 180230Z AUTO 27005KT 210V300 9999 // SCT025 32/26 Q1007

EXPIRED METARs :
  • 180200Z AUTO 27006KT 240V300 9999 // SCT023 BKN029 31/26 Q1008
  • 180130Z AUTO 30009KT 9999 // BKN019 BKN024 31/27 Q1008
  • 180100Z AUTO 33007KT 9999 // BKN016 BKN022 30/27 Q1008
  • 180033Z AUTO 34005KT 9999 // BKN016 29/27 Q1007 RF00.0/005.8

TAF AMD TAF YCIN
Valid from the 18 at 00:00 until the 18 at 14:00 UTC


180002Z 1800/1814 34007KT 9999 SCT012
FM180200 31012KT 9999 SCT035
TEMPO 1800/1802 9999 BKN012
PROB30
TEMPO 1803/1810 VRB20G35KT 1000 TSRA BKN010 SCT030CB



MET'MAP, your aeronautical weather chart ! - Copyright ORBIFLY December 2007 - Disclaimer

ORBIFLY MET'MAP TEAM :

Programming & Development : Alexandra Zaïnal
Concept & original design : Baudouin d'Aumeries
Assistance for programming : Marc-Olivier Méhu
Technical & hardware support : Manuel Goepfert

Contact : metmap@orbifly.com




SOURCES & CREDITS :

   NOAA       Earth
Advisory